Observations for SOUTHAMPTON WX CNTR, United Kingdom (EGHI)

EGHI 280450Z 03003KT 2000 -RADZ BR BKN004 15/13 Q0998   
EGHI 272150Z VRB01KT 3500 RA SCT005 BKN014 15/14 Q1002  
EGHI 272120Z 00000KT 3500 MIFG RA SCT010 BKN016 15/14 Q1002 
EGHI 272050Z 00000KT 3000 MIFG RA SCT015 BKN032 16/14 Q1002 
EGHI 272020Z 00000KT 3000 MIFG RA SCT015 BKN032 16/14 Q1002 
EGHI 271950Z 00000KT 3000 RA SCT015 BKN032 16/14 Q1002  
EGHI 271920Z 09002KT 3000 RA SCT010 BKN016 16/15 Q1002  
EGHI 271850Z 11001KT 4500 -RADZ SCT010 BKN016 16/15 Q1003   
EGHI 271820Z VRB01KT 6000 -DZ FEW010 SCT014 BKN044 16/15 Q1003  
EGHI 271750Z 00000KT 6000 -RA FEW010 SCT022 BKN044 17/15 Q1003  
EGHI 271720Z VRB01KT 8000 VCSH SCT021 BKN044 17/15 Q1003
EGHI 271650Z VRB03KT 8000 VCSH FEW008 SCT021 BKN042 17/15 Q1004 
EGHI 271620Z VRB01KT 8000 VCSH FEW008 SCT017 BKN034 17/15 Q1004 
EGHI 271550Z VRB01KT 8000 -RA FEW029 BKN040 17/15 Q1004 
EGHI 271520Z VRB01KT 8000 -RA FEW029 BKN040 17/14 Q1004 
EGHI 271450Z 16004KT 130V200 9000 -RA FEW024 BKN040 17/14 Q1005 
EGHI 271420Z 18004KT 150V210 9999 VCSH FEW024 BKN040 18/13 Q1005
EGHI 271350Z VRB02KT 9999 VCSH FEW024 20/12 Q1005   
EGHI 271320Z VRB02KT 9999 FEW034 20/12 Q1005
EGHI 271250Z VRB03KT 9999 FEW034 20/12 Q1005
EGHI 271220Z VRB02KT 9999 FEW034 20/12 Q1005
EGHI 271150Z 09004KT 050V130 9999 FEW040 20/12 Q1005
EGHI 271120Z VRB03KT 9999 FEW038 19/12 Q1006
EGHI 271050Z 13005KT 090V190 9999 FEW038 19/11 Q1006
EGHI 271020Z 17004KT 120V210 9999 FEW044 19/11 Q1006
EGHI 270950Z VRB03KT 9999 FEW044 20/12 Q1006
EGHI 270920Z 11006KT 060V150 9999 FEW044 19/11 Q1006
EGHI 270850Z 11005KT 010V170 9999 FEW043 18/10 Q1007
EGHI 270820Z 10004KT 040V150 9999 FEW043 17/10 Q1007
EGHI 270750Z VRB03KT 9999 SCT043 16/09 Q1007
EGHI 270720Z VRB01KT 9999 BKN041 15/09 Q1007
EGHI 270650Z 00000KT 9999 BKN043 14/09 Q1008
EGHI 270620Z VRB01KT 9999 BKN045 14/08 Q1008
EGHI 270550Z VRB02KT 9999 BKN046 14/08 Q1008
EGHI 270520Z 00000KT 9999 BKN046 14/08 Q1008
EGHI 270450Z VRB03KT 9999 SCT046 13/07 Q1008